メインページ
METAR-TAF:

METAR-TAF

空港 :

ジョージ・ブッシュ・インターコンチネンタル空港

ヒューストン, テキサス州, アメリカ合衆国

緯度: 29-59-33N, 経度: 095-21-50W, 海抜: 29m

現時点の気象観測

当レポートは34分前の18:53(UTC)に作成
変向風 3kt
気温 33°C
湿度 59%
気圧 1014 hPa
視程: 16.1km
高度4800ftの雲は散在している
高度25000ftの雲は散在している

METAR: KIAH 181853Z VRB03KT 10SM SCT048 SCT250 33/24 A2994 RMK AO2 SLP137 T03330239

時間: 14:27 (19:27 UTC)

予報

当レポートは2時間5分前の17:22(UTC)に作成
予報は18日の 18時(UTC)から 19日の 24時(UTC)まで有効
変向風 4kt
視程: 10km
高度5000ftの雲はほとんどない
高度20000ftの雲はほとんどない

TAF: KIAH 181722Z 1818/1924 VRB04KT P6SM FEW050 FEW200

4,000以上の空港の気象観測と天気予報(METAR報とTAF報)

利用可能な観測所は地図上に黄色い丸と赤い丸で示す。

丸の上にカーソルを重ねると観測所名を参照できる。

次にクリックすると気象観測と天気予報を参照できる。

マップの切り替え:黒色「×」印の緑ボタンをクリックして拡大、「-」印の緑ボタンをクリックして縮小、緑色の三角印をクリックして隣りの地図に切り替え


METAR-TAF: